sensor_id;sensor_type;location;lat;lon;timestamp;pressure;altitude;pressure_sealevel;temperature;humidity
58761;BME280;44529;47.464;19.014;2023-04-21T00:02:48;100185.94;;;13.06;61.53
58761;BME280;44529;47.464;19.014;2023-04-21T00:05:51;100179.59;;;13.02;59.56
58761;BME280;44529;47.464;19.014;2023-04-21T00:08:53;100178.91;;;13.05;58.81
58761;BME280;44529;47.464;19.014;2023-04-21T00:11:56;100178.47;;;13.03;59.65
58761;BME280;44529;47.464;19.014;2023-04-21T00:14:59;100171.09;;;13.04;58.19
58761;BME280;44529;47.464;19.014;2023-04-21T00:18:02;100164.97;;;13.15;57.46
58761;BME280;44529;47.464;19.014;2023-04-21T00:21:04;100171.56;;;13.06;58.94
58761;BME280;44529;47.464;19.014;2023-04-21T00:24:08;100163.81;;;12.95;58.18
58761;BME280;44529;47.464;19.014;2023-04-21T00:27:10;100169.53;;;13.02;58.10
58761;BME280;44529;47.464;19.014;2023-04-21T00:30:13;100171.09;;;13.04;57.82
58761;BME280;44529;47.464;19.014;2023-04-21T00:33:15;100169.88;;;13.01;56.98
58761;BME280;44529;47.464;19.014;2023-04-21T00:36:17;100166.47;;;13.04;56.98
58761;BME280;44529;47.464;19.014;2023-04-21T00:39:21;100167.00;;;12.97;57.88
58761;BME280;44529;47.464;19.014;2023-04-21T00:42:24;100164.12;;;12.94;57.04
58761;BME280;44529;47.464;19.014;2023-04-21T00:45:26;100177.06;;;12.97;57.34
58761;BME280;44529;47.464;19.014;2023-04-21T00:48:30;100167.97;;;12.93;58.16
58761;BME280;44529;47.464;19.014;2023-04-21T00:51:34;100173.81;;;12.83;57.68
58761;BME280;44529;47.464;19.014;2023-04-21T00:54:38;100167.25;;;12.84;57.41
58761;BME280;44529;47.464;19.014;2023-04-21T00:57:40;100160.22;;;12.83;57.24
58761;BME280;44529;47.464;19.014;2023-04-21T01:00:43;100164.19;;;12.85;57.59
58761;BME280;44529;47.464;19.014;2023-04-21T01:03:45;100161.66;;;12.80;57.68
58761;BME280;44529;47.464;19.014;2023-04-21T01:06:49;100171.09;;;12.83;57.58
58761;BME280;44529;47.464;19.014;2023-04-21T01:09:51;100163.91;;;12.78;57.55
58761;BME280;44529;47.464;19.014;2023-04-21T01:12:54;100166.19;;;12.76;57.36
58761;BME280;44529;47.464;19.014;2023-04-21T01:15:56;100166.81;;;12.73;58.08
58761;BME280;44529;47.464;19.014;2023-04-21T01:19:00;100160.78;;;12.67;57.56
58761;BME280;44529;47.464;19.014;2023-04-21T01:22:02;100162.87;;;12.62;57.84
58761;BME280;44529;47.464;19.014;2023-04-21T01:25:05;100165.91;;;12.60;57.70
58761;BME280;44529;47.464;19.014;2023-04-21T01:28:08;100164.00;;;12.61;58.34
58761;BME280;44529;47.464;19.014;2023-04-21T01:31:10;100155.41;;;12.59;58.25
58761;BME280;44529;47.464;19.014;2023-04-21T01:34:13;100159.09;;;12.54;58.60
58761;BME280;44529;47.464;19.014;2023-04-21T01:37:19;100164.22;;;12.47;58.71
58761;BME280;44529;47.464;19.014;2023-04-21T01:40:21;100160.09;;;12.50;58.27
58761;BME280;44529;47.464;19.014;2023-04-21T01:43:24;100157.38;;;12.50;58.47
58761;BME280;44529;47.464;19.014;2023-04-21T01:46:27;100149.25;;;12.50;58.37
58761;BME280;44529;47.464;19.014;2023-04-21T01:49:30;100153.38;;;12.47;59.18
58761;BME280;44529;47.464;19.014;2023-04-21T01:52:33;100154.50;;;12.46;59.43
58761;BME280;44529;47.464;19.014;2023-04-21T01:55:35;100150.22;;;12.45;59.53
58761;BME280;44529;47.464;19.014;2023-04-21T01:58:41;100149.41;;;12.44;58.60
58761;BME280;44529;47.464;19.014;2023-04-21T02:01:44;100149.53;;;12.48;57.59
58761;BME280;44529;47.464;19.014;2023-04-21T02:04:47;100147.16;;;12.46;57.75
58761;BME280;44529;47.464;19.014;2023-04-21T02:07:49;100151.78;;;12.46;57.22
58761;BME280;44529;47.464;19.014;2023-04-21T02:10:51;100149.53;;;12.48;57.52
58761;BME280;44529;47.464;19.014;2023-04-21T02:13:54;100154.56;;;12.37;56.95
58761;BME280;44529;47.464;19.014;2023-04-21T02:16:57;100154.69;;;12.41;56.61
58761;BME280;44529;47.464;19.014;2023-04-21T02:19:59;100159.25;;;12.49;55.83
58761;BME280;44529;47.464;19.014;2023-04-21T02:23:05;100148.56;;;12.53;55.88
58761;BME280;44529;47.464;19.014;2023-04-21T02:26:07;100142.63;;;12.59;54.98
58761;BME280;44529;47.464;19.014;2023-04-21T02:29:10;100155.25;;;12.55;55.84
58761;BME280;44529;47.464;19.014;2023-04-21T02:32:12;100152.53;;;12.55;55.66
58761;BME280;44529;47.464;19.014;2023-04-21T02:35:26;100152.50;;;12.64;54.23
58761;BME280;44529;47.464;19.014;2023-04-21T02:38:29;100155.59;;;12.54;54.83
58761;BME280;44529;47.464;19.014;2023-04-21T02:41:31;100155.75;;;12.48;54.93
58761;BME280;44529;47.464;19.014;2023-04-21T02:44:37;100156.56;;;12.49;54.95
58761;BME280;44529;47.464;19.014;2023-04-21T02:47:41;100155.25;;;12.55;55.24
58761;BME280;44529;47.464;19.014;2023-04-21T02:50:43;100158.97;;;12.42;55.20
58761;BME280;44529;47.464;19.014;2023-04-21T02:53:46;100158.38;;;12.36;56.59
58761;BME280;44529;47.464;19.014;2023-04-21T02:56:48;100152.16;;;12.36;55.99
58761;BME280;44529;47.464;19.014;2023-04-21T02:59:50;100157.72;;;12.39;55.04
58761;BME280;44529;47.464;19.014;2023-04-21T03:02:53;100153.44;;;12.38;54.66
58761;BME280;44529;47.464;19.014;2023-04-21T03:06:00;100157.56;;;12.36;54.98
58761;BME280;44529;47.464;19.014;2023-04-21T03:09:02;100160.28;;;12.36;55.64
58761;BME280;44529;47.464;19.014;2023-04-21T03:12:05;100156.66;;;12.32;55.17
58761;BME280;44529;47.464;19.014;2023-04-21T03:15:10;100163.50;;;12.29;54.11
58761;BME280;44529;47.464;19.014;2023-04-21T03:18:13;100160.47;;;12.31;56.40
58761;BME280;44529;47.464;19.014;2023-04-21T03:21:16;100162.56;;;12.25;55.72
58761;BME280;44529;47.464;19.014;2023-04-21T03:24:18;100161.44;;;12.26;55.73
58761;BME280;44529;47.464;19.014;2023-04-21T03:27:22;100164.00;;;12.23;54.37
58761;BME280;44529;47.464;19.014;2023-04-21T03:30:25;100165.44;;;12.20;53.92
58761;BME280;44529;47.464;19.014;2023-04-21T03:33:27;100170.38;;;12.27;53.31
58761;BME280;44529;47.464;19.014;2023-04-21T03:36:30;100158.41;;;12.28;53.72
58761;BME280;44529;47.464;19.014;2023-04-21T03:39:33;100163.66;;;12.33;53.16
58761;BME280;44529;47.464;19.014;2023-04-21T03:42:36;100163.16;;;12.39;53.01
58761;BME280;44529;47.464;19.014;2023-04-21T03:45:38;100175.13;;;12.30;53.12
58761;BME280;44529;47.464;19.014;2023-04-21T03:48:41;100169.72;;;12.30;52.61
58761;BME280;44529;47.464;19.014;2023-04-21T03:51:43;100177.22;;;12.33;52.95
58761;BME280;44529;47.464;19.014;2023-04-21T03:54:46;100170.19;;;12.32;53.80
58761;BME280;44529;47.464;19.014;2023-04-21T03:57:48;100178.97;;;12.37;53.50
58761;BME280;44529;47.464;19.014;2023-04-21T04:00:50;100186.09;;;12.42;52.88
58761;BME280;44529;47.464;19.014;2023-04-21T04:03:53;100186.75;;;12.39;52.55
58761;BME280;44529;47.464;19.014;2023-04-21T04:06:55;100188.69;;;12.38;52.69
58761;BME280;44529;47.464;19.014;2023-04-21T04:09:58;100193.72;;;12.48;52.87
58761;BME280;44529;47.464;19.014;2023-04-21T04:13:00;100198.69;;;12.46;52.72
58761;BME280;44529;47.464;19.014;2023-04-21T04:16:03;100199.34;;;12.43;53.15
58761;BME280;44529;47.464;19.014;2023-04-21T04:19:06;100199.69;;;12.33;53.82
58761;BME280;44529;47.464;19.014;2023-04-21T04:22:09;100203.81;;;12.39;53.88
58761;BME280;44529;47.464;19.014;2023-04-21T04:25:11;100208.44;;;12.39;54.21
58761;BME280;44529;47.464;19.014;2023-04-21T04:28:18;100201.91;;;12.40;54.27
58761;BME280;44529;47.464;19.014;2023-04-21T04:31:21;100210.41;;;12.21;55.07
58761;BME280;44529;47.464;19.014;2023-04-21T04:34:26;100211.88;;;12.18;56.42
58761;BME280;44529;47.464;19.014;2023-04-21T04:37:28;100209.00;;;12.24;55.94
58761;BME280;44529;47.464;19.014;2023-04-21T04:40:31;100204.41;;;12.07;57.30
58761;BME280;44529;47.464;19.014;2023-04-21T04:43:34;100213.47;;;12.19;56.39
58761;BME280;44529;47.464;19.014;2023-04-21T04:46:43;100221.78;;;12.06;57.39
58761;BME280;44529;47.464;19.014;2023-04-21T04:49:46;100221.13;;;12.17;58.10
58761;BME280;44529;47.464;19.014;2023-04-21T04:52:49;100215.38;;;12.10;57.94
58761;BME280;44529;47.464;19.014;2023-04-21T04:55:52;100219.38;;;12.04;58.89
58761;BME280;44529;47.464;19.014;2023-04-21T04:58:55;100220.50;;;12.03;57.36
58761;BME280;44529;47.464;19.014;2023-04-21T05:01:57;100212.06;;;12.05;57.43
58761;BME280;44529;47.464;19.014;2023-04-21T05:05:01;100215.88;;;12.04;56.27
58761;BME280;44529;47.464;19.014;2023-04-21T05:08:04;100221.28;;;12.04;57.13
58761;BME280;44529;47.464;19.014;2023-04-21T05:11:07;100216.50;;;12.18;56.89
58761;BME280;44529;47.464;19.014;2023-04-21T05:14:09;100216.63;;;12.22;57.60
58761;BME280;44529;47.464;19.014;2023-04-21T05:17:11;100214.41;;;12.24;55.94
58761;BME280;44529;47.464;19.014;2023-04-21T05:20:14;100219.66;;;12.20;55.49
58761;BME280;44529;47.464;19.014;2023-04-21T05:23:17;100220.31;;;12.17;55.84
58761;BME280;44529;47.464;19.014;2023-04-21T05:26:20;100224.59;;;12.27;55.61
58761;BME280;44529;47.464;19.014;2023-04-21T05:29:22;100225.72;;;12.26;55.87
58761;BME280;44529;47.464;19.014;2023-04-21T05:32:25;100219.19;;;12.27;56.37
58761;BME280;44529;47.464;19.014;2023-04-21T05:35:31;100225.22;;;12.32;56.54
58761;BME280;44529;47.464;19.014;2023-04-21T05:38:37;100216.13;;;12.37;56.25
58761;BME280;44529;47.464;19.014;2023-04-21T05:41:40;100219.75;;;12.41;55.80
58761;BME280;44529;47.464;19.014;2023-04-21T05:44:43;100224.06;;;12.42;56.17
58761;BME280;44529;47.464;19.014;2023-04-21T05:47:45;100223.91;;;12.47;56.12
58761;BME280;44529;47.464;19.014;2023-04-21T05:50:49;100229.59;;;12.54;55.56
58761;BME280;44529;47.464;19.014;2023-04-21T05:53:54;100227.06;;;12.49;55.37
58761;BME280;44529;47.464;19.014;2023-04-21T05:56:59;100224.69;;;12.47;55.57
58761;BME280;44529;47.464;19.014;2023-04-21T06:00:03;100227.53;;;12.60;54.43
58761;BME280;44529;47.464;19.014;2023-04-21T06:03:13;100232.91;;;12.68;55.49
58761;BME280;44529;47.464;19.014;2023-04-21T06:06:29;100229.56;;;12.71;55.69
58761;BME280;44529;47.464;19.014;2023-04-21T06:09:56;100237.50;;;12.77;54.43
58761;BME280;44529;47.464;19.014;2023-04-21T06:13:09;100230.97;;;12.78;53.49
58761;BME280;44529;47.464;19.014;2023-04-21T06:16:36;100235.09;;;12.75;53.67
58761;BME280;44529;47.464;19.014;2023-04-21T06:19:52;100231.91;;;12.82;53.85
58761;BME280;44529;47.464;19.014;2023-04-21T06:23:21;100235.81;;;13.01;52.86
58761;BME280;44529;47.464;19.014;2023-04-21T06:26:52;100231.97;;;13.02;53.18
58761;BME280;44529;47.464;19.014;2023-04-21T06:30:01;100223.28;;;13.09;53.81
58761;BME280;44529;47.464;19.014;2023-04-21T06:33:31;100236.38;;;13.07;53.68
58761;BME280;44529;47.464;19.014;2023-04-21T06:36:41;100232.16;;;13.18;52.41
58761;BME280;44529;47.464;19.014;2023-04-21T06:39:43;100232.34;;;13.22;52.51
58761;BME280;44529;47.464;19.014;2023-04-21T06:42:46;100233.47;;;13.21;52.57
58761;BME280;44529;47.464;19.014;2023-04-21T06:45:49;100226.72;;;13.27;50.69
58761;BME280;44529;47.464;19.014;2023-04-21T06:48:51;100240.44;;;13.31;51.04
58761;BME280;44529;47.464;19.014;2023-04-21T06:51:54;100229.84;;;13.38;50.10
58761;BME280;44529;47.464;19.014;2023-04-21T06:54:56;100237.19;;;13.37;50.08
58761;BME280;44529;47.464;19.014;2023-04-21T06:57:59;100227.13;;;13.38;50.07
58761;BME280;44529;47.464;19.014;2023-04-21T07:01:01;100231.13;;;13.40;50.45
58761;BME280;44529;47.464;19.014;2023-04-21T07:04:04;100235.53;;;13.45;49.39
58761;BME280;44529;47.464;19.014;2023-04-21T07:07:07;100220.37;;;13.44;50.92
58761;BME280;44529;47.464;19.014;2023-04-21T07:10:10;100222.09;;;13.48;50.36
58761;BME280;44529;47.464;19.014;2023-04-21T07:13:18;100225.09;;;13.55;50.63
58761;BME280;44529;47.464;19.014;2023-04-21T07:16:23;100227.41;;;13.66;49.58
58761;BME280;44529;47.464;19.014;2023-04-21T07:19:25;100223.94;;;13.77;49.08
58761;BME280;44529;47.464;19.014;2023-04-21T07:22:28;100231.00;;;13.91;49.77
58761;BME280;44529;47.464;19.014;2023-04-21T07:25:30;100233.78;;;14.03;48.59
58761;BME280;44529;47.464;19.014;2023-04-21T07:28:33;100223.69;;;14.03;50.68
58761;BME280;44529;47.464;19.014;2023-04-21T07:31:35;100225.06;;;14.09;50.26
58761;BME280;44529;47.464;19.014;2023-04-21T07:34:38;100223.56;;;14.33;50.22
58761;BME280;44529;47.464;19.014;2023-04-21T07:37:41;100226.94;;;14.63;48.82
58761;BME280;44529;47.464;19.014;2023-04-21T07:40:43;100222.38;;;15.16;47.17
58761;BME280;44529;47.464;19.014;2023-04-21T07:43:46;100219.56;;;15.65;46.42
58761;BME280;44529;47.464;19.014;2023-04-21T07:46:48;100223.22;;;16.13;47.27
58761;BME280;44529;47.464;19.014;2023-04-21T07:49:50;100231.03;;;16.58;45.78
58761;BME280;44529;47.464;19.014;2023-04-21T07:52:53;100221.25;;;16.89;42.56
58761;BME280;44529;47.464;19.014;2023-04-21T07:55:55;100221.44;;;17.31;41.58
58761;BME280;44529;47.464;19.014;2023-04-21T07:58:58;100221.59;;;17.57;41.51
58761;BME280;44529;47.464;19.014;2023-04-21T08:02:00;100225.34;;;18.07;39.78
58761;BME280;44529;47.464;19.014;2023-04-21T08:05:03;100224.28;;;18.35;39.78
58761;BME280;44529;47.464;19.014;2023-04-21T08:08:06;100223.44;;;18.54;38.49
58761;BME280;44529;47.464;19.014;2023-04-21T08:11:08;100217.03;;;18.92;38.19
58761;BME280;44529;47.464;19.014;2023-04-21T08:14:12;100217.25;;;19.33;38.54
58761;BME280;44529;47.464;19.014;2023-04-21T08:17:14;100213.37;;;19.37;37.98
58761;BME280;44529;47.464;19.014;2023-04-21T08:20:17;100207.19;;;19.44;37.99
58761;BME280;44529;47.464;19.014;2023-04-21T08:23:19;100215.31;;;19.97;38.83
58761;BME280;44529;47.464;19.014;2023-04-21T08:26:22;100209.59;;;20.50;36.61
58761;BME280;44529;47.464;19.014;2023-04-21T08:29:27;100208.28;;;20.81;34.74
58761;BME280;44529;47.464;19.014;2023-04-21T08:32:29;100204.66;;;20.73;33.55
58761;BME280;44529;47.464;19.014;2023-04-21T08:35:31;100209.63;;;21.08;33.39
58761;BME280;44529;47.464;19.014;2023-04-21T08:38:36;100199.94;;;21.29;31.09
58761;BME280;44529;47.464;19.014;2023-04-21T08:41:39;100202.78;;;21.50;31.37
58761;BME280;44529;47.464;19.014;2023-04-21T08:44:44;100209.94;;;21.69;30.82
58761;BME280;44529;47.464;19.014;2023-04-21T08:47:47;100209.66;;;21.92;31.33
58761;BME280;44529;47.464;19.014;2023-04-21T08:50:51;100201.47;;;22.17;32.30
58761;BME280;44529;47.464;19.014;2023-04-21T08:53:56;100198.75;;;22.63;31.46
58761;BME280;44529;47.464;19.014;2023-04-21T08:57:02;100199.91;;;22.52;31.49
58761;BME280;44529;47.464;19.014;2023-04-21T09:00:19;100194.41;;;22.84;31.17
58761;BME280;44529;47.464;19.014;2023-04-21T09:03:26;100193.94;;;23.32;29.75
58761;BME280;44529;47.464;19.014;2023-04-21T09:06:40;100193.09;;;23.42;29.18
58761;BME280;44529;47.464;19.014;2023-04-21T09:09:54;100192.25;;;23.56;29.71
58761;BME280;44529;47.464;19.014;2023-04-21T09:13:06;100197.28;;;23.82;29.96
58761;BME280;44529;47.464;19.014;2023-04-21T09:16:17;100194.09;;;23.91;29.07
58761;BME280;44529;47.464;19.014;2023-04-21T09:19:27;100194.78;;;24.02;28.05
58761;BME280;44529;47.464;19.014;2023-04-21T09:22:36;100187.00;;;23.86;28.07
58761;BME280;44529;47.464;19.014;2023-04-21T09:25:44;100183.13;;;23.73;28.05
58761;BME280;44529;47.464;19.014;2023-04-21T09:28:50;100190.41;;;23.17;27.99
58761;BME280;44529;47.464;19.014;2023-04-21T09:31:57;100192.03;;;22.82;30.01
58761;BME280;44529;47.464;19.014;2023-04-21T09:35:02;100177.44;;;22.14;29.93
58761;BME280;44529;47.464;19.014;2023-04-21T09:38:11;100162.72;;;21.53;31.94
58761;BME280;44529;47.464;19.014;2023-04-21T09:41:19;100174.34;;;21.21;32.00
58761;BME280;44529;47.464;19.014;2023-04-21T09:44:24;100168.59;;;21.48;32.00
58761;BME280;44529;47.464;19.014;2023-04-21T09:47:33;100170.72;;;22.08;31.21
58761;BME280;44529;47.464;19.014;2023-04-21T09:50:48;100161.34;;;22.55;30.65
58761;BME280;44529;47.464;19.014;2023-04-21T09:54:20;100164.38;;;21.79;30.87
58761;BME280;44529;47.464;19.014;2023-04-21T09:57:37;100158.59;;;21.18;32.29
58761;BME280;44529;47.464;19.014;2023-04-21T10:00:43;100163.38;;;20.63;33.38
58761;BME280;44529;47.464;19.014;2023-04-21T10:03:50;100157.31;;;20.94;35.49
58761;BME280;44529;47.464;19.014;2023-04-21T10:06:53;100147.19;;;21.09;33.65
58761;BME280;44529;47.464;19.014;2023-04-21T10:09:58;100149.03;;;20.91;32.05
58761;BME280;44529;47.464;19.014;2023-04-21T10:13:01;100145.06;;;20.81;32.33
58761;BME280;44529;47.464;19.014;2023-04-21T10:16:08;100147.97;;;20.51;33.97
58761;BME280;44529;47.464;19.014;2023-04-21T10:19:26;100153.41;;;20.44;33.64
58761;BME280;44529;47.464;19.014;2023-04-21T10:22:33;100147.84;;;20.37;33.26
58761;BME280;44529;47.464;19.014;2023-04-21T10:25:38;100146.84;;;20.55;35.11
58761;BME280;44529;47.464;19.014;2023-04-21T10:28:47;100145.41;;;20.79;33.41
58761;BME280;44529;47.464;19.014;2023-04-21T10:31:51;100131.78;;;20.94;33.29
58761;BME280;44529;47.464;19.014;2023-04-21T10:34:55;100136.50;;;20.97;33.63
58761;BME280;44529;47.464;19.014;2023-04-21T10:37:57;100137.19;;;20.79;34.08
58761;BME280;44529;47.464;19.014;2023-04-21T10:41:25;100132.53;;;20.91;33.07
58761;BME280;44529;47.464;19.014;2023-04-21T10:44:30;100129.09;;;20.46;34.39
58761;BME280;44529;47.464;19.014;2023-04-21T10:47:40;100120.28;;;20.22;36.03
58761;BME280;44529;47.464;19.014;2023-04-21T10:50:47;100127.69;;;20.18;35.14
58761;BME280;44529;47.464;19.014;2023-04-21T10:53:50;100117.25;;;20.38;33.95
58761;BME280;44529;47.464;19.014;2023-04-21T10:56:57;100117.88;;;20.17;35.44
58761;BME280;44529;47.464;19.014;2023-04-21T11:00:00;100109.84;;;19.98;35.81
58761;BME280;44529;47.464;19.014;2023-04-21T11:03:06;100112.81;;;19.79;36.73
58761;BME280;44529;47.464;19.014;2023-04-21T11:06:14;100114.75;;;19.44;37.31
58761;BME280;44529;47.464;19.014;2023-04-21T11:09:17;100112.50;;;19.54;37.51
58761;BME280;44529;47.464;19.014;2023-04-21T11:12:19;100105.09;;;19.91;35.36
58761;BME280;44529;47.464;19.014;2023-04-21T11:15:21;100108.88;;;19.80;34.91
58761;BME280;44529;47.464;19.014;2023-04-21T11:18:36;100104.47;;;19.68;34.42
58761;BME280;44529;47.464;19.014;2023-04-21T11:21:39;100101.91;;;19.52;34.54
58761;BME280;44529;47.464;19.014;2023-04-21T11:24:45;100110.41;;;19.10;36.74
58761;BME280;44529;47.464;19.014;2023-04-21T11:27:52;100101.00;;;19.07;36.97
58761;BME280;44529;47.464;19.014;2023-04-21T11:30:56;100099.31;;;18.99;35.38
58761;BME280;44529;47.464;19.014;2023-04-21T11:33:59;100096.91;;;18.94;37.33
58761;BME280;44529;47.464;19.014;2023-04-21T11:37:02;100093.72;;;18.92;37.81
58761;BME280;44529;47.464;19.014;2023-04-21T11:40:05;100092.00;;;18.80;38.10
58761;BME280;44529;47.464;19.014;2023-04-21T11:43:09;100099.78;;;18.75;38.38
58761;BME280;44529;47.464;19.014;2023-04-21T11:46:31;100091.84;;;18.96;36.81
58761;BME280;44529;47.464;19.014;2023-04-21T11:49:43;100094.50;;;18.89;37.73
58761;BME280;44529;47.464;19.014;2023-04-21T11:52:46;100092.44;;;18.82;37.98
58761;BME280;44529;47.464;19.014;2023-04-21T11:55:49;100090.59;;;18.90;36.26
58761;BME280;44529;47.464;19.014;2023-04-21T11:58:52;100090.03;;;18.77;36.82
58761;BME280;44529;47.464;19.014;2023-04-21T12:01:54;100085.34;;;18.78;38.72
58761;BME280;44529;47.464;19.014;2023-04-21T12:05:10;100092.69;;;18.74;38.16
58761;BME280;44529;47.464;19.014;2023-04-21T12:08:14;100093.44;;;18.71;35.77
58761;BME280;44529;47.464;19.014;2023-04-21T12:11:17;100083.38;;;18.78;36.65
58761;BME280;44529;47.464;19.014;2023-04-21T12:14:21;100079.53;;;18.83;36.79
58761;BME280;44529;47.464;19.014;2023-04-21T12:17:24;100074.09;;;18.86;35.57
58761;BME280;44529;47.464;19.014;2023-04-21T12:20:28;100078.75;;;18.82;37.57
58761;BME280;44529;47.464;19.014;2023-04-21T12:23:31;100070.09;;;18.80;36.06
58761;BME280;44529;47.464;19.014;2023-04-21T12:26:33;100071.91;;;18.69;35.98
58761;BME280;44529;47.464;19.014;2023-04-21T12:29:36;100070.16;;;18.57;37.34
58761;BME280;44529;47.464;19.014;2023-04-21T12:32:39;100066.72;;;18.64;37.08
58761;BME280;44529;47.464;19.014;2023-04-21T12:35:42;100060.25;;;18.76;36.33
58761;BME280;44529;47.464;19.014;2023-04-21T12:38:45;100061.44;;;18.75;37.76
58761;BME280;44529;47.464;19.014;2023-04-21T12:41:47;100057.09;;;18.74;36.43
58761;BME280;44529;47.464;19.014;2023-04-21T12:44:50;100059.50;;;18.79;37.67
58761;BME280;44529;47.464;19.014;2023-04-21T12:47:52;100054.03;;;18.79;38.20
58761;BME280;44529;47.464;19.014;2023-04-21T12:50:55;100057.94;;;18.78;38.38
58761;BME280;44529;47.464;19.014;2023-04-21T12:53:58;100050.03;;;18.73;38.26
58761;BME280;44529;47.464;19.014;2023-04-21T12:57:01;100059.09;;;18.77;36.32
58761;BME280;44529;47.464;19.014;2023-04-21T13:00:04;100054.44;;;18.54;37.54
58761;BME280;44529;47.464;19.014;2023-04-21T13:03:06;100058.66;;;18.48;37.62
58761;BME280;44529;47.464;19.014;2023-04-21T13:06:09;100049.72;;;18.51;37.37
58761;BME280;44529;47.464;19.014;2023-04-21T13:09:11;100052.78;;;18.46;38.09
58761;BME280;44529;47.464;19.014;2023-04-21T13:12:14;100051.19;;;18.45;37.25
58761;BME280;44529;47.464;19.014;2023-04-21T13:15:16;100048.88;;;18.47;37.24
58761;BME280;44529;47.464;19.014;2023-04-21T13:18:19;100051.50;;;18.40;37.34
58761;BME280;44529;47.464;19.014;2023-04-21T13:21:21;100053.72;;;18.31;37.78
58761;BME280;44529;47.464;19.014;2023-04-21T13:24:23;100048.25;;;18.31;40.49
58761;BME280;44529;47.464;19.014;2023-04-21T13:27:27;100052.03;;;18.23;41.76
58761;BME280;44529;47.464;19.014;2023-04-21T13:30:30;100041.81;;;18.20;39.25
58761;BME280;44529;47.464;19.014;2023-04-21T13:33:32;100044.19;;;18.21;38.60
58761;BME280;44529;47.464;19.014;2023-04-21T13:36:36;100042.66;;;18.24;38.92
58761;BME280;44529;47.464;19.014;2023-04-21T13:39:38;100041.91;;;18.27;38.84
58761;BME280;44529;47.464;19.014;2023-04-21T13:42:41;100039.56;;;18.25;39.66
58761;BME280;44529;47.464;19.014;2023-04-21T13:45:43;100037.25;;;18.27;39.35
58761;BME280;44529;47.464;19.014;2023-04-21T13:48:47;100038.72;;;18.21;40.40
58761;BME280;44529;47.464;19.014;2023-04-21T13:51:51;100034.47;;;18.24;38.19
58761;BME280;44529;47.464;19.014;2023-04-21T13:54:53;100025.91;;;18.29;36.67
58761;BME280;44529;47.464;19.014;2023-04-21T13:57:58;100029.50;;;18.33;37.28
58761;BME280;44529;47.464;19.014;2023-04-21T14:01:01;100023.31;;;18.36;38.94
58761;BME280;44529;47.464;19.014;2023-04-21T14:04:05;100024.91;;;18.40;37.37
58761;BME280;44529;47.464;19.014;2023-04-21T14:07:08;100014.72;;;18.37;37.64
58761;BME280;44529;47.464;19.014;2023-04-21T14:10:10;100010.44;;;18.40;38.29
58761;BME280;44529;47.464;19.014;2023-04-21T14:13:15;100012.34;;;18.36;37.20
58761;BME280;44529;47.464;19.014;2023-04-21T14:16:37;100009.34;;;18.45;37.95
58761;BME280;44529;47.464;19.014;2023-04-21T14:19:40;100010.13;;;18.45;37.31
58761;BME280;44529;47.464;19.014;2023-04-21T14:22:42;99997.69;;;18.51;38.58
58761;BME280;44529;47.464;19.014;2023-04-21T14:25:44;99999.25;;;18.52;39.48
58761;BME280;44529;47.464;19.014;2023-04-21T14:28:48;100004.44;;;18.57;37.01
58761;BME280;44529;47.464;19.014;2023-04-21T14:31:50;100000.13;;;18.56;38.04
58761;BME280;44529;47.464;19.014;2023-04-21T14:34:55;99995.03;;;18.58;38.51
58761;BME280;44529;47.464;19.014;2023-04-21T14:37:59;100000.53;;;18.58;39.40
58761;BME280;44529;47.464;19.014;2023-04-21T14:41:02;99989.97;;;18.60;39.92
58761;BME280;44529;47.464;19.014;2023-04-21T14:44:04;99992.31;;;18.58;39.95
58761;BME280;44529;47.464;19.014;2023-04-21T14:47:06;99986.75;;;18.51;36.92
58761;BME280;44529;47.464;19.014;2023-04-21T14:50:12;99979.78;;;18.57;36.81
58761;BME280;44529;47.464;19.014;2023-04-21T14:53:14;99981.66;;;18.50;37.65
58761;BME280;44529;47.464;19.014;2023-04-21T14:56:16;99979.63;;;18.47;38.36
58761;BME280;44529;47.464;19.014;2023-04-21T14:59:20;99985.91;;;18.47;39.23
58761;BME280;44529;47.464;19.014;2023-04-21T15:02:24;99980.00;;;18.45;38.74
58761;BME280;44529;47.464;19.014;2023-04-21T15:05:27;99983.81;;;18.37;38.26
58761;BME280;44529;47.464;19.014;2023-04-21T15:08:29;99975.53;;;18.33;38.24
58761;BME280;44529;47.464;19.014;2023-04-21T15:11:32;99974.38;;;18.34;39.36
58761;BME280;44529;47.464;19.014;2023-04-21T15:14:34;99969.69;;;18.35;38.23
58761;BME280;44529;47.464;19.014;2023-04-21T15:17:36;99973.25;;;18.35;38.25
58761;BME280;44529;47.464;19.014;2023-04-21T15:20:39;99964.66;;;18.37;38.02
58761;BME280;44529;47.464;19.014;2023-04-21T15:23:47;99968.66;;;18.43;36.71
58761;BME280;44529;47.464;19.014;2023-04-21T15:26:49;99965.56;;;18.48;36.35
58761;BME280;44529;47.464;19.014;2023-04-21T15:29:51;99966.22;;;18.38;36.81
58761;BME280;44529;47.464;19.014;2023-04-21T15:32:54;99975.44;;;18.26;37.36
58761;BME280;44529;47.464;19.014;2023-04-21T15:35:56;99965.25;;;18.23;38.07
58761;BME280;44529;47.464;19.014;2023-04-21T15:38:58;99964.69;;;18.10;40.66
58761;BME280;44529;47.464;19.014;2023-04-21T15:42:01;99962.56;;;18.00;41.00
58761;BME280;44529;47.464;19.014;2023-04-21T15:45:05;99958.25;;;17.99;39.88
58761;BME280;44529;47.464;19.014;2023-04-21T15:48:08;99967.50;;;17.91;41.23
58761;BME280;44529;47.464;19.014;2023-04-21T15:51:11;99966.25;;;17.85;41.12
58761;BME280;44529;47.464;19.014;2023-04-21T15:54:14;99960.34;;;17.83;40.08